createdAt,value
2023-03-15T00:02:16.438Z,2.10
2023-03-15T00:04:44.321Z,1.90
2023-03-15T00:07:12.377Z,2.10
2023-03-15T00:09:41.485Z,1.80
2023-03-15T00:12:09.724Z,1.90
2023-03-15T00:14:38.105Z,1.70
2023-03-15T00:17:05.960Z,1.80
2023-03-15T00:19:33.756Z,1.80
2023-03-15T00:22:01.586Z,1.70
2023-03-15T00:24:29.532Z,1.40
2023-03-15T00:26:58.960Z,1.50
2023-03-15T00:29:26.858Z,1.40
2023-03-15T00:31:54.719Z,1.50
2023-03-15T00:34:25.770Z,1.30
2023-03-15T00:36:54.585Z,1.60
2023-03-15T00:39:25.609Z,1.50
2023-03-15T00:41:56.624Z,1.60
2023-03-15T00:44:26.272Z,1.40
2023-03-15T00:46:54.110Z,1.30
2023-03-15T00:49:21.954Z,1.40
2023-03-15T00:51:50.263Z,1.50
2023-03-15T00:54:18.054Z,1.60
2023-03-15T00:56:45.853Z,1.60
2023-03-15T00:59:13.668Z,1.60
2023-03-15T01:01:44.738Z,1.40
2023-03-15T01:04:12.777Z,1.70
2023-03-15T01:06:42.207Z,1.50
2023-03-15T01:09:10.651Z,1.60
2023-03-15T01:11:38.634Z,1.70
2023-03-15T01:14:08.727Z,1.60
2023-03-15T01:16:36.783Z,1.60
2023-03-15T01:19:06.229Z,1.60
2023-03-15T01:21:34.095Z,1.60
2023-03-15T01:24:01.997Z,1.70
2023-03-15T01:26:29.797Z,1.60
2023-03-15T01:28:57.578Z,1.40
2023-03-15T01:31:27.632Z,1.60
2023-03-15T01:33:56.260Z,1.40
2023-03-15T01:36:25.751Z,1.60
2023-03-15T01:38:54.855Z,1.60
2023-03-15T01:41:24.670Z,1.60
2023-03-15T01:43:52.829Z,1.40
2023-03-15T01:46:29.102Z,1.60
2023-03-15T01:49:01.768Z,1.60
2023-03-15T01:51:35.290Z,1.50
2023-03-15T01:54:08.676Z,1.60
2023-03-15T01:56:39.919Z,1.70
2023-03-15T01:59:12.459Z,1.60
2023-03-15T02:01:45.494Z,1.50
2023-03-15T02:04:18.024Z,1.40
2023-03-15T02:06:48.584Z,1.50
2023-03-15T02:09:19.301Z,1.60
2023-03-15T02:11:47.282Z,1.60
2023-03-15T02:14:16.186Z,1.70
2023-03-15T02:16:44.543Z,1.70
2023-03-15T02:19:26.582Z,1.60
2023-03-15T02:22:03.911Z,1.70
2023-03-15T02:24:43.540Z,1.60
2023-03-15T02:27:11.794Z,1.60
2023-03-15T02:29:42.035Z,1.50
2023-03-15T02:32:10.083Z,1.60
2023-03-15T02:34:37.969Z,1.70
2023-03-15T02:37:05.911Z,1.60
2023-03-15T02:39:33.751Z,1.80
2023-03-15T02:42:01.982Z,1.60
2023-03-15T02:44:32.792Z,1.50
2023-03-15T02:47:05.304Z,1.60
2023-03-15T02:49:38.638Z,1.70
2023-03-15T02:52:07.222Z,1.40
2023-03-15T02:54:35.119Z,1.60
2023-03-15T02:57:03.857Z,1.40
2023-03-15T02:59:31.934Z,1.80
2023-03-15T03:01:59.909Z,1.50
2023-03-15T03:04:29.507Z,1.50
2023-03-15T03:06:57.339Z,1.70
2023-03-15T03:09:25.962Z,1.60
2023-03-15T03:11:53.778Z,1.70
2023-03-15T03:14:23.708Z,1.80
2023-03-15T03:16:51.888Z,1.90
2023-03-15T03:19:20.057Z,1.60
2023-03-15T03:21:49.227Z,1.50
2023-03-15T03:24:17.018Z,1.70
2023-03-15T03:26:46.062Z,1.80
2023-03-15T03:29:16.781Z,1.80
2023-03-15T03:31:45.615Z,1.90
2023-03-15T03:34:15.471Z,1.70
2023-03-15T03:36:43.789Z,1.70
2023-03-15T03:39:13.276Z,1.80
2023-03-15T03:41:41.064Z,1.80
2023-03-15T03:44:08.880Z,1.60
2023-03-15T03:46:37.290Z,1.60
2023-03-15T03:49:05.193Z,1.60
2023-03-15T03:51:34.049Z,1.40
2023-03-15T03:54:01.904Z,1.50
2023-03-15T03:56:31.293Z,1.60
2023-03-15T03:58:59.135Z,1.40
2023-03-15T04:01:26.951Z,1.70
2023-03-15T04:03:54.970Z,1.80
2023-03-15T04:06:23.499Z,1.60
2023-03-15T04:08:51.336Z,1.70
2023-03-15T04:11:19.143Z,1.70
2023-03-15T04:13:49.204Z,1.70
2023-03-15T04:16:17.017Z,1.70
2023-03-15T04:18:44.883Z,1.70
2023-03-15T04:21:12.913Z,1.70
2023-03-15T04:23:41.008Z,1.80
2023-03-15T04:26:08.886Z,1.70
2023-03-15T04:28:37.970Z,1.70
2023-03-15T04:31:10.436Z,1.70
2023-03-15T04:33:38.431Z,1.60
2023-03-15T04:36:06.806Z,1.70
2023-03-15T04:38:35.488Z,1.80
2023-03-15T04:41:10.695Z,1.70
2023-03-15T04:43:38.513Z,1.80
2023-03-15T04:46:07.973Z,1.70
2023-03-15T04:48:36.039Z,1.70
2023-03-15T04:51:03.868Z,1.60
2023-03-15T04:53:31.690Z,1.60
2023-03-15T04:55:59.498Z,1.60
2023-03-15T04:58:27.364Z,1.70
2023-03-15T05:00:55.273Z,1.70
2023-03-15T05:03:24.567Z,1.50
2023-03-15T05:05:52.447Z,1.60
2023-03-15T05:08:20.772Z,1.50
2023-03-15T05:10:48.583Z,1.50
2023-03-15T05:13:18.853Z,1.60
2023-03-15T05:15:46.631Z,1.70
2023-03-15T05:18:14.446Z,1.60
2023-03-15T05:20:43.891Z,1.60
2023-03-15T05:23:11.737Z,1.70
2023-03-15T05:25:39.534Z,1.60
2023-03-15T05:28:07.577Z,1.60
2023-03-15T05:30:35.460Z,1.60
2023-03-15T05:33:04.919Z,1.60
2023-03-15T05:35:32.770Z,1.50
2023-03-15T05:38:03.292Z,1.60
2023-03-15T05:40:31.207Z,1.50
2023-03-15T05:42:58.996Z,1.40
2023-03-15T05:45:26.983Z,1.50
2023-03-15T05:47:54.810Z,1.40
2023-03-15T05:50:23.153Z,1.30
2023-03-15T05:52:52.128Z,1.30
2023-03-15T05:55:22.065Z,1.40
2023-03-15T05:57:50.079Z,1.20
2023-03-15T06:00:19.206Z,1.30
2023-03-15T06:02:48.284Z,1.40
2023-03-15T06:05:16.231Z,1.20
2023-03-15T06:07:44.615Z,1.00
2023-03-15T06:10:13.999Z,1.10
2023-03-15T06:12:44.637Z,1.20
2023-03-15T06:15:13.158Z,1.00
2023-03-15T06:17:41.079Z,0.90
2023-03-15T06:20:09.989Z,1.00
2023-03-15T06:22:38.224Z,1.00
2023-03-15T06:25:07.051Z,1.00
2023-03-15T06:27:35.052Z,1.00
2023-03-15T06:30:05.217Z,1.00
2023-03-15T06:32:33.130Z,1.10
2023-03-15T06:35:01.072Z,0.90
2023-03-15T06:37:34.988Z,1.20
2023-03-15T06:40:05.835Z,1.20
2023-03-15T06:42:33.636Z,1.30
2023-03-15T06:45:01.989Z,1.30
2023-03-15T06:47:31.211Z,1.20
2023-03-15T06:49:58.998Z,1.40
2023-03-15T06:52:26.851Z,1.40
2023-03-15T06:54:54.699Z,1.10
2023-03-15T06:57:22.550Z,1.40
2023-03-15T06:59:50.700Z,1.40
2023-03-15T07:02:19.933Z,1.30
2023-03-15T07:04:49.535Z,1.30
2023-03-15T07:07:17.445Z,1.10
2023-03-15T07:09:45.305Z,1.10
2023-03-15T07:12:13.414Z,1.30
2023-03-15T07:14:41.306Z,1.20
2023-03-15T07:17:09.242Z,1.50
2023-03-15T07:19:41.401Z,1.40
2023-03-15T07:22:15.887Z,1.40
2023-03-15T07:24:43.701Z,1.50
2023-03-15T07:27:15.687Z,1.50
2023-03-15T07:29:44.421Z,1.70
2023-03-15T07:32:12.291Z,1.60
2023-03-15T07:34:40.245Z,1.80
2023-03-15T07:37:08.298Z,1.80
2023-03-15T07:39:37.485Z,1.70
2023-03-15T07:42:07.137Z,1.70
2023-03-15T07:44:35.070Z,1.80
2023-03-15T07:47:02.888Z,1.80
2023-03-15T07:49:31.733Z,1.80
2023-03-15T07:51:59.633Z,2.00
2023-03-15T07:54:29.406Z,2.00
2023-03-15T07:56:58.561Z,2.00
2023-03-15T07:59:26.373Z,2.30
2023-03-15T08:01:54.517Z,2.20
2023-03-15T08:04:22.406Z,2.10
2023-03-15T08:06:50.363Z,2.20
2023-03-15T08:09:18.188Z,2.20
2023-03-15T08:11:46.044Z,2.40
2023-03-15T08:14:15.257Z,2.40
2023-03-15T08:16:43.104Z,2.60
2023-03-15T08:19:11.002Z,2.60
2023-03-15T08:21:38.821Z,2.40
2023-03-15T08:24:07.227Z,2.60
2023-03-15T08:26:34.985Z,2.70
2023-03-15T08:29:02.814Z,2.70
2023-03-15T08:31:32.309Z,2.80
2023-03-15T08:34:00.150Z,3.00
2023-03-15T08:36:28.067Z,2.90
2023-03-15T08:38:55.901Z,2.90
2023-03-15T08:41:23.713Z,3.10
2023-03-15T08:43:51.496Z,3.10
2023-03-15T08:46:21.812Z,3.10
2023-03-15T08:48:51.151Z,3.40
2023-03-15T08:51:19.636Z,3.20
2023-03-15T08:53:47.442Z,3.30
2023-03-15T08:56:15.263Z,3.40
2023-03-15T08:58:43.370Z,3.60
2023-03-15T09:01:12.699Z,3.60
2023-03-15T09:03:42.359Z,3.70
2023-03-15T09:06:11.783Z,3.70
2023-03-15T09:08:39.649Z,3.80
2023-03-15T09:11:07.445Z,3.80
2023-03-15T09:13:35.286Z,3.80
2023-03-15T09:16:03.732Z,3.80
2023-03-15T09:18:31.990Z,4.00
2023-03-15T09:20:59.804Z,4.10
2023-03-15T09:23:29.036Z,4.20
2023-03-15T09:25:56.891Z,4.20
2023-03-15T09:28:26.510Z,4.10
2023-03-15T09:30:54.638Z,4.10
2023-03-15T09:33:22.582Z,4.40
2023-03-15T09:35:52.055Z,4.40
2023-03-15T09:38:22.002Z,4.50
2023-03-15T09:40:51.551Z,4.30
2023-03-15T09:43:48.578Z,4.20
2023-03-15T09:46:26.392Z,4.20
2023-03-15T09:48:57.550Z,4.20
2023-03-15T09:51:35.371Z,4.40
2023-03-15T09:54:08.882Z,4.50
2023-03-15T09:56:45.412Z,4.50
2023-03-15T09:59:16.284Z,4.60
2023-03-15T10:01:45.342Z,4.70
2023-03-15T10:04:21.011Z,4.50
2023-03-15T10:06:54.468Z,4.70
2023-03-15T10:09:24.676Z,4.80
2023-03-15T10:12:04.198Z,5.00
2023-03-15T10:14:44.625Z,5.20
2023-03-15T10:17:15.633Z,5.30
2023-03-15T10:19:49.809Z,5.00
2023-03-15T10:22:25.720Z,5.30
2023-03-15T10:24:57.952Z,5.20
2023-03-15T10:27:32.972Z,5.10
2023-03-15T10:30:02.247Z,5.20
2023-03-15T10:32:38.469Z,5.20
2023-03-15T10:35:15.232Z,5.20
2023-03-15T10:37:43.589Z,5.40
2023-03-15T10:40:15.940Z,5.30
2023-03-15T10:42:46.758Z,5.50
2023-03-15T10:45:21.719Z,5.60
2023-03-15T10:47:59.738Z,5.70
2023-03-15T10:50:30.893Z,5.90
2023-03-15T10:53:00.338Z,6.00
2023-03-15T10:55:33.822Z,5.90
2023-03-15T10:58:21.324Z,6.10
2023-03-15T11:00:53.358Z,6.00
2023-03-15T11:03:23.843Z,5.90
2023-03-15T11:05:53.634Z,6.10
2023-03-15T11:08:23.954Z,6.00
2023-03-15T11:10:58.134Z,6.10
2023-03-15T11:13:28.563Z,6.00
2023-03-15T11:16:03.763Z,5.80
2023-03-15T11:18:36.184Z,5.90
2023-03-15T11:21:09.355Z,6.00
2023-03-15T11:23:39.321Z,6.00
2023-03-15T11:26:12.289Z,6.20
2023-03-15T11:28:44.005Z,6.10
2023-03-15T11:31:11.837Z,6.40
2023-03-15T11:33:46.500Z,6.40
2023-03-15T11:36:19.412Z,7.00
2023-03-15T11:38:47.950Z,7.10
2023-03-15T11:41:25.136Z,7.10
2023-03-15T11:44:03.458Z,6.80
2023-03-15T11:46:35.631Z,6.90
2023-03-15T11:49:11.756Z,7.00
2023-03-15T11:51:40.466Z,6.80
2023-03-15T11:54:15.355Z,7.10
2023-03-15T11:56:57.418Z,7.20
2023-03-15T11:59:32.475Z,7.70
2023-03-15T12:02:02.431Z,7.50
2023-03-15T12:04:51.274Z,7.40
2023-03-15T12:07:36.871Z,7.40
2023-03-15T12:10:30.728Z,7.20
2023-03-15T12:13:00.015Z,7.40
2023-03-15T12:15:47.884Z,7.70
2023-03-15T12:18:22.180Z,7.90
2023-03-15T12:21:18.378Z,8.00
2023-03-15T12:23:50.363Z,7.80
2023-03-15T12:26:33.514Z,7.30
2023-03-15T12:29:09.765Z,7.20
2023-03-15T12:32:00.546Z,7.10
2023-03-15T12:34:37.051Z,7.60
2023-03-15T12:37:07.952Z,7.60
2023-03-15T12:39:48.329Z,7.80
2023-03-15T12:43:10.387Z,7.90
2023-03-15T12:45:47.473Z,8.10
2023-03-15T12:48:27.305Z,8.40
2023-03-15T12:51:14.595Z,8.40
2023-03-15T12:53:48.292Z,8.50
2023-03-15T12:56:35.773Z,8.90
2023-03-15T12:59:28.133Z,9.20
2023-03-15T13:01:57.499Z,8.90
2023-03-15T13:04:27.972Z,9.10
2023-03-15T13:07:07.563Z,9.40
2023-03-15T13:10:00.916Z,9.40
2023-03-15T13:12:33.879Z,9.30
2023-03-15T13:15:07.378Z,9.40
2023-03-15T13:17:42.406Z,9.30
2023-03-15T13:20:21.528Z,9.40
2023-03-15T13:22:56.493Z,9.30
2023-03-15T13:25:31.243Z,9.10
2023-03-15T13:28:03.894Z,8.90
2023-03-15T13:30:35.400Z,8.90
2023-03-15T13:33:10.952Z,8.90
2023-03-15T13:35:44.994Z,8.80
2023-03-15T13:38:25.713Z,9.20
2023-03-15T13:40:53.570Z,9.30
2023-03-15T13:43:21.607Z,9.40
2023-03-15T13:45:49.400Z,9.50
2023-03-15T13:48:18.900Z,9.60
2023-03-15T13:50:51.424Z,9.20
2023-03-15T13:53:35.663Z,8.90
2023-03-15T13:56:16.446Z,8.50
2023-03-15T13:58:44.461Z,8.60
2023-03-15T14:01:15.393Z,8.70
2023-03-15T14:03:47.870Z,8.70
2023-03-15T14:06:24.682Z,8.40
2023-03-15T14:08:55.642Z,8.50
2023-03-15T14:11:38.192Z,8.40
2023-03-15T14:14:24.054Z,8.50
2023-03-15T14:17:04.176Z,8.70
2023-03-15T14:19:34.659Z,9.00
2023-03-15T14:22:05.857Z,9.20
2023-03-15T14:24:37.568Z,9.10
2023-03-15T14:27:08.730Z,9.20
2023-03-15T14:29:38.987Z,9.10
2023-03-15T14:32:09.516Z,9.30
2023-03-15T14:34:44.566Z,9.10
2023-03-15T14:37:31.051Z,9.30
2023-03-15T14:40:09.869Z,9.40
2023-03-15T14:42:37.682Z,9.20
2023-03-15T14:45:06.628Z,9.20
2023-03-15T14:47:55.945Z,9.10
2023-03-15T14:50:26.874Z,8.90
2023-03-15T14:52:58.152Z,9.20
2023-03-15T14:55:30.392Z,9.40
2023-03-15T14:57:58.235Z,9.50
2023-03-15T15:00:26.853Z,9.40
2023-03-15T15:02:56.578Z,9.40
2023-03-15T15:05:27.246Z,9.50
2023-03-15T15:08:03.346Z,9.20
2023-03-15T15:10:32.414Z,9.20
2023-03-15T15:13:06.444Z,9.10
2023-03-15T15:15:53.614Z,8.90
2023-03-15T15:18:23.932Z,8.60
2023-03-15T15:20:55.173Z,8.50
2023-03-15T15:23:27.086Z,8.30
2023-03-15T15:25:58.081Z,8.30
2023-03-15T15:28:36.614Z,8.20
2023-03-15T15:31:06.777Z,8.00
2023-03-15T15:33:34.794Z,8.20
2023-03-15T15:36:03.227Z,8.20
2023-03-15T15:38:38.260Z,8.40
2023-03-15T15:41:07.573Z,8.20
2023-03-15T15:43:35.430Z,8.40
2023-03-15T15:46:03.348Z,8.40
2023-03-15T15:48:31.374Z,8.40
2023-03-15T15:50:59.292Z,8.30
2023-03-15T15:53:31.873Z,8.40
2023-03-15T15:56:01.074Z,8.20
2023-03-15T15:58:28.973Z,8.10
2023-03-15T16:00:56.813Z,8.10
2023-03-15T16:03:24.850Z,8.00
2023-03-15T16:05:52.860Z,8.00
2023-03-15T16:08:24.546Z,8.10
2023-03-15T16:10:52.923Z,8.10
2023-03-15T16:13:35.086Z,7.90
2023-03-15T16:16:03.011Z,7.90
2023-03-15T16:18:32.093Z,7.70
2023-03-15T16:21:00.738Z,7.70
2023-03-15T16:23:28.607Z,7.80
2023-03-15T16:25:57.398Z,7.50
2023-03-15T16:28:26.963Z,7.50
2023-03-15T16:30:54.846Z,7.60
2023-03-15T16:33:23.740Z,7.50
2023-03-15T16:35:53.392Z,7.40
2023-03-15T16:38:24.888Z,7.20
2023-03-15T16:40:53.881Z,6.90
2023-03-15T16:43:21.768Z,7.00
2023-03-15T16:45:51.069Z,6.70
2023-03-15T16:48:18.903Z,7.00
2023-03-15T16:50:48.138Z,6.90
2023-03-15T16:53:16.025Z,6.70
2023-03-15T16:55:43.841Z,6.80
2023-03-15T16:58:17.567Z,6.50
2023-03-15T17:00:47.782Z,6.60
2023-03-15T17:03:18.073Z,6.50
2023-03-15T17:05:47.901Z,6.50
2023-03-15T17:08:20.465Z,6.40
2023-03-15T17:10:49.166Z,6.30
2023-03-15T17:13:21.515Z,6.30
2023-03-15T17:15:49.378Z,6.20
2023-03-15T17:18:19.774Z,6.10
2023-03-15T17:20:50.077Z,6.10
2023-03-15T17:23:20.737Z,5.80
2023-03-15T17:25:49.328Z,5.80
2023-03-15T17:28:17.596Z,5.90
2023-03-15T17:30:46.004Z,5.70
2023-03-15T17:33:13.889Z,5.60
2023-03-15T17:35:45.396Z,5.60
2023-03-15T17:38:18.291Z,5.40
2023-03-15T17:40:46.445Z,5.20
2023-03-15T17:43:17.174Z,4.90
2023-03-15T17:45:45.025Z,5.00
2023-03-15T17:48:13.245Z,4.80
2023-03-15T17:50:44.765Z,4.70
2023-03-15T17:53:16.802Z,4.80
2023-03-15T17:55:46.220Z,4.60
2023-03-15T17:58:18.946Z,4.60
2023-03-15T18:00:48.308Z,4.50
2023-03-15T18:03:17.547Z,4.40
2023-03-15T18:05:47.802Z,4.10
2023-03-15T18:08:18.131Z,4.00
2023-03-15T18:10:47.030Z,4.00
2023-03-15T18:13:17.509Z,3.80
2023-03-15T18:15:45.403Z,3.70
2023-03-15T18:18:13.470Z,3.70
2023-03-15T18:20:42.073Z,3.60
2023-03-15T18:23:14.004Z,3.50
2023-03-15T18:25:42.088Z,3.40
2023-03-15T18:28:10.300Z,3.30
2023-03-15T18:30:38.157Z,3.30
2023-03-15T18:33:06.148Z,3.30
2023-03-15T18:35:36.516Z,3.00
2023-03-15T18:38:04.989Z,3.00
2023-03-15T18:40:35.316Z,3.00
2023-03-15T18:43:05.290Z,3.10
2023-03-15T18:45:35.528Z,3.00
2023-03-15T18:48:04.354Z,2.90
2023-03-15T18:50:33.520Z,2.70
2023-03-15T18:53:01.465Z,2.80
2023-03-15T18:55:29.401Z,2.80
2023-03-15T18:57:58.697Z,2.50
2023-03-15T19:00:29.452Z,2.40
2023-03-15T19:02:59.197Z,2.50
2023-03-15T19:05:27.959Z,2.50
2023-03-15T19:07:55.808Z,2.30
2023-03-15T19:10:24.979Z,2.10
2023-03-15T19:12:53.178Z,2.30
2023-03-15T19:15:23.788Z,2.30
2023-03-15T19:17:54.337Z,2.10
2023-03-15T19:20:22.661Z,2.00
2023-03-15T19:22:51.067Z,2.00
2023-03-15T19:25:19.493Z,2.00
2023-03-15T19:27:47.483Z,1.80
2023-03-15T19:30:20.716Z,2.00
2023-03-15T19:32:51.046Z,1.90
2023-03-15T19:35:20.044Z,1.90
2023-03-15T19:37:48.679Z,1.80
2023-03-15T19:40:17.141Z,1.80
2023-03-15T19:42:45.193Z,1.70
2023-03-15T19:45:13.316Z,1.70
2023-03-15T19:47:41.519Z,1.60
2023-03-15T19:50:13.028Z,1.50
2023-03-15T19:52:45.852Z,1.40
2023-03-15T19:55:14.371Z,1.40
2023-03-15T19:57:42.263Z,1.30
2023-03-15T20:00:12.583Z,1.20
2023-03-15T20:02:40.947Z,1.30
2023-03-15T20:05:11.967Z,1.20
2023-03-15T20:07:40.223Z,1.30
2023-03-15T20:10:11.751Z,1.30
2023-03-15T20:12:42.024Z,1.20
2023-03-15T20:15:11.453Z,1.20
2023-03-15T20:17:40.737Z,1.20
2023-03-15T20:20:13.123Z,1.20
2023-03-15T20:22:42.685Z,1.20
2023-03-15T20:25:11.690Z,1.30
2023-03-15T20:27:39.896Z,1.20
2023-03-15T20:30:09.804Z,1.10
2023-03-15T20:32:37.733Z,1.20
2023-03-15T20:35:09.059Z,1.10
2023-03-15T20:37:40.118Z,1.00
2023-03-15T20:40:10.630Z,1.20
2023-03-15T20:42:38.724Z,1.00
2023-03-15T20:45:07.826Z,1.10
2023-03-15T20:47:35.889Z,1.20
2023-03-15T20:50:03.782Z,1.00
2023-03-15T20:52:37.961Z,1.20
2023-03-15T20:55:08.147Z,0.90
2023-03-15T20:57:36.313Z,1.10
2023-03-15T21:00:11.990Z,0.90
2023-03-15T21:02:40.205Z,1.00
2023-03-15T21:05:09.272Z,1.00
2023-03-15T21:07:37.426Z,1.00
2023-03-15T21:10:07.446Z,1.00
2023-03-15T21:12:35.343Z,0.90
2023-03-15T21:15:03.266Z,1.00
2023-03-15T21:17:34.490Z,1.10
2023-03-15T21:20:02.379Z,0.90
2023-03-15T21:22:30.449Z,0.80
2023-03-15T21:24:58.343Z,1.00
2023-03-15T21:27:27.583Z,0.80
2023-03-15T21:29:55.523Z,0.80
2023-03-15T21:32:23.541Z,0.90
2023-03-15T21:34:51.651Z,0.90
2023-03-15T21:37:19.504Z,1.10
2023-03-15T21:39:47.347Z,0.70
2023-03-15T21:42:15.143Z,0.90
2023-03-15T21:44:44.353Z,0.80
2023-03-15T21:47:13.962Z,0.80
2023-03-15T21:49:44.544Z,0.80
2023-03-15T21:52:12.527Z,0.80
2023-03-15T21:54:40.449Z,1.10
2023-03-15T21:57:08.382Z,1.10
2023-03-15T21:59:36.214Z,1.00
2023-03-15T22:02:05.535Z,0.80
2023-03-15T22:04:34.120Z,0.90
2023-03-15T22:07:02.142Z,1.00
2023-03-15T22:09:29.996Z,1.00
2023-03-15T22:11:57.847Z,0.80
2023-03-15T22:14:25.704Z,0.90
2023-03-15T22:16:53.638Z,0.90
2023-03-15T22:19:23.401Z,0.90
2023-03-15T22:21:51.234Z,1.00
2023-03-15T22:24:19.057Z,0.90
2023-03-15T22:26:46.853Z,1.00
2023-03-15T22:29:14.700Z,0.80
2023-03-15T22:31:42.554Z,1.00
2023-03-15T22:34:10.396Z,0.90
2023-03-15T22:36:39.586Z,1.00
2023-03-15T22:39:07.526Z,1.00
2023-03-15T22:41:35.742Z,1.00
2023-03-15T22:44:03.584Z,1.00
2023-03-15T22:46:34.878Z,1.20
2023-03-15T22:49:03.208Z,1.10
2023-03-15T22:51:31.180Z,1.10
2023-03-15T22:54:00.379Z,1.10
2023-03-15T22:56:28.184Z,1.30
2023-03-15T22:58:56.357Z,1.40
2023-03-15T23:01:24.567Z,1.30
2023-03-15T23:03:52.524Z,1.30
2023-03-15T23:06:20.658Z,1.10
2023-03-15T23:08:48.809Z,1.30
2023-03-15T23:11:18.011Z,1.20
2023-03-15T23:13:48.276Z,1.40
2023-03-15T23:16:16.182Z,1.40
2023-03-15T23:18:44.409Z,1.30
2023-03-15T23:21:13.961Z,1.30
2023-03-15T23:23:42.989Z,1.40
2023-03-15T23:26:12.664Z,1.40
2023-03-15T23:28:42.026Z,1.30
2023-03-15T23:31:10.063Z,1.50
2023-03-15T23:33:37.962Z,1.50
2023-03-15T23:36:07.229Z,1.30
2023-03-15T23:38:35.354Z,1.30
2023-03-15T23:41:04.875Z,1.50
2023-03-15T23:43:33.676Z,1.40
2023-03-15T23:46:05.128Z,1.40
2023-03-15T23:48:35.153Z,1.30
2023-03-15T23:51:03.944Z,1.40
2023-03-15T23:53:31.895Z,1.30
2023-03-15T23:55:59.833Z,1.20
2023-03-15T23:58:28.148Z,1.10
